sensor_id;sensor_type;location;lat;lon;timestamp;pressure;altitude;pressure_sealevel;temperature;humidity
74181;BME280;62544;50.826;14.354;2022-09-01T00:02:18;99663.90;;;12.62;89.07
74181;BME280;62544;50.826;14.354;2022-09-01T00:06:21;99663.76;;;12.54;88.94
74181;BME280;62544;50.826;14.354;2022-09-01T00:10:22;99663.75;;;12.48;89.18
74181;BME280;62544;50.826;14.354;2022-09-01T00:14:26;99663.51;;;12.41;89.26
74181;BME280;62544;50.826;14.354;2022-09-01T00:18:26;99663.22;;;12.35;89.42
74181;BME280;62544;50.826;14.354;2022-09-01T00:22:28;99663.55;;;12.29;89.51
74181;BME280;62544;50.826;14.354;2022-09-01T00:26:30;99664.08;;;12.23;89.53
74181;BME280;62544;50.826;14.354;2022-09-01T00:30:32;99664.61;;;12.19;90.13
74181;BME280;62544;50.826;14.354;2022-09-01T00:34:34;99663.83;;;12.13;90.00
74181;BME280;62544;50.826;14.354;2022-09-01T00:38:36;99662.95;;;12.08;90.62
74181;BME280;62544;50.826;14.354;2022-09-01T00:42:39;99661.60;;;12.02;90.25
74181;BME280;62544;50.826;14.354;2022-09-01T00:46:41;99661.19;;;11.94;89.86
74181;BME280;62544;50.826;14.354;2022-09-01T00:50:42;99659.76;;;11.87;90.39
74181;BME280;62544;50.826;14.354;2022-09-01T00:54:45;99659.06;;;11.79;90.22
74181;BME280;62544;50.826;14.354;2022-09-01T00:58:46;99658.42;;;11.71;90.04
74181;BME280;62544;50.826;14.354;2022-09-01T01:02:48;99658.01;;;11.63;90.14
74181;BME280;62544;50.826;14.354;2022-09-01T01:06:51;99656.50;;;11.55;90.02
74181;BME280;62544;50.826;14.354;2022-09-01T01:10:52;99655.10;;;11.47;90.57
74181;BME280;62544;50.826;14.354;2022-09-01T01:14:54;99654.16;;;11.39;90.67
74181;BME280;62544;50.826;14.354;2022-09-01T01:18:56;99652.89;;;11.32;90.50
74181;BME280;62544;50.826;14.354;2022-09-01T01:27:00;99651.56;;;11.16;90.69
74181;BME280;62544;50.826;14.354;2022-09-01T01:31:03;99651.84;;;11.09;91.32
74181;BME280;62544;50.826;14.354;2022-09-01T01:35:04;99653.05;;;11.02;90.91
74181;BME280;62544;50.826;14.354;2022-09-01T01:43:08;99653.47;;;10.89;91.18
74181;BME280;62544;50.826;14.354;2022-09-01T01:47:10;99654.01;;;10.83;91.35
74181;BME280;62544;50.826;14.354;2022-09-01T01:51:12;99653.67;;;10.77;91.51
74181;BME280;62544;50.826;14.354;2022-09-01T01:55:14;99652.87;;;10.70;91.34
74181;BME280;62544;50.826;14.354;2022-09-01T01:59:16;99653.09;;;10.64;91.41
74181;BME280;62544;50.826;14.354;2022-09-01T02:03:21;99651.87;;;10.57;91.30
74181;BME280;62544;50.826;14.354;2022-09-01T02:07:20;99651.15;;;10.51;91.44
74181;BME280;62544;50.826;14.354;2022-09-01T02:11:22;99650.58;;;10.45;91.42
74181;BME280;62544;50.826;14.354;2022-09-01T02:15:24;99650.86;;;10.39;91.47
74181;BME280;62544;50.826;14.354;2022-09-01T02:19:26;99651.76;;;10.34;92.20
74181;BME280;62544;50.826;14.354;2022-09-01T02:23:28;99652.64;;;10.31;92.15
74181;BME280;62544;50.826;14.354;2022-09-01T02:27:30;99653.58;;;10.28;92.40
74181;BME280;62544;50.826;14.354;2022-09-01T02:31:32;99653.59;;;10.26;92.41
74181;BME280;62544;50.826;14.354;2022-09-01T02:35:35;99653.90;;;10.22;92.10
74181;BME280;62544;50.826;14.354;2022-09-01T02:39:36;99654.61;;;10.19;92.35
74181;BME280;62544;50.826;14.354;2022-09-01T02:43:38;99653.23;;;10.16;92.18
74181;BME280;62544;50.826;14.354;2022-09-01T02:47:40;99651.90;;;10.12;92.37
74181;BME280;62544;50.826;14.354;2022-09-01T02:51:42;99650.55;;;10.08;92.17
74181;BME280;62544;50.826;14.354;2022-09-01T02:55:44;99649.21;;;10.03;92.26
74181;BME280;62544;50.826;14.354;2022-09-01T02:59:46;99647.69;;;9.99;92.44
74181;BME280;62544;50.826;14.354;2022-09-01T03:03:48;99646.20;;;9.94;92.21
74181;BME280;62544;50.826;14.354;2022-09-01T03:07:51;99645.01;;;9.89;92.22
74181;BME280;62544;50.826;14.354;2022-09-01T03:11:52;99644.58;;;9.84;92.16
74181;BME280;62544;50.826;14.354;2022-09-01T03:15:54;99643.93;;;9.78;92.12
74181;BME280;62544;50.826;14.354;2022-09-01T03:19:56;99642.38;;;9.72;92.19
74181;BME280;62544;50.826;14.354;2022-09-01T03:23:58;99641.27;;;9.66;91.93
74181;BME280;62544;50.826;14.354;2022-09-01T03:28:00;99640.08;;;9.61;92.28
74181;BME280;62544;50.826;14.354;2022-09-01T03:32:02;99640.22;;;9.58;92.60
74181;BME280;62544;50.826;14.354;2022-09-01T03:36:04;99640.66;;;9.56;92.58
74181;BME280;62544;50.826;14.354;2022-09-01T03:40:06;99641.52;;;9.55;92.64
74181;BME280;62544;50.826;14.354;2022-09-01T03:44:08;99641.02;;;9.55;92.80
74181;BME280;62544;50.826;14.354;2022-09-01T03:48:10;99639.64;;;9.57;93.10
74181;BME280;62544;50.826;14.354;2022-09-01T03:52:12;99638.05;;;9.60;93.25
74181;BME280;62544;50.826;14.354;2022-09-01T03:56:14;99637.31;;;9.64;93.17
74181;BME280;62544;50.826;14.354;2022-09-01T04:00:16;99637.11;;;9.68;93.33
74181;BME280;62544;50.826;14.354;2022-09-01T04:04:18;99637.13;;;9.72;93.15
74181;BME280;62544;50.826;14.354;2022-09-01T04:08:20;99637.81;;;9.77;93.34
74181;BME280;62544;50.826;14.354;2022-09-01T04:12:22;99637.81;;;9.83;93.20
74181;BME280;62544;50.826;14.354;2022-09-01T04:16:24;99638.65;;;9.88;93.17
74181;BME280;62544;50.826;14.354;2022-09-01T04:20:26;99639.14;;;9.93;93.31
74181;BME280;62544;50.826;14.354;2022-09-01T04:24:28;99640.08;;;9.98;93.12
74181;BME280;62544;50.826;14.354;2022-09-01T04:28:31;99641.24;;;10.03;93.15
74181;BME280;62544;50.826;14.354;2022-09-01T04:32:32;99642.41;;;10.09;93.14
74181;BME280;62544;50.826;14.354;2022-09-01T04:36:34;99643.23;;;10.15;93.11
74181;BME280;62544;50.826;14.354;2022-09-01T04:40:38;99644.45;;;10.22;93.04
74181;BME280;62544;50.826;14.354;2022-09-01T04:44:38;99646.44;;;10.29;92.95
74181;BME280;62544;50.826;14.354;2022-09-01T04:48:40;99647.79;;;10.38;92.89
74181;BME280;62544;50.826;14.354;2022-09-01T04:52:45;99649.63;;;10.47;92.77
74181;BME280;62544;50.826;14.354;2022-09-01T04:56:44;99650.61;;;10.58;92.74
74181;BME280;62544;50.826;14.354;2022-09-01T05:00:47;99650.84;;;10.69;92.48
74181;BME280;62544;50.826;14.354;2022-09-01T05:04:47;99651.12;;;10.80;92.54
74181;BME280;62544;50.826;14.354;2022-09-01T05:08:50;99651.84;;;10.92;92.26
74181;BME280;62544;50.826;14.354;2022-09-01T05:12:52;99652.14;;;11.03;91.50
74181;BME280;62544;50.826;14.354;2022-09-01T05:16:57;99652.61;;;11.13;91.78
74181;BME280;62544;50.826;14.354;2022-09-01T05:20:55;99653.25;;;11.23;91.62
74181;BME280;62544;50.826;14.354;2022-09-01T05:24:58;99652.14;;;11.32;91.92
74181;BME280;62544;50.826;14.354;2022-09-01T05:29:00;99652.12;;;11.41;91.59
74181;BME280;62544;50.826;14.354;2022-09-01T05:33:02;99651.79;;;11.50;91.39
74181;BME280;62544;50.826;14.354;2022-09-01T05:37:04;99652.12;;;11.57;91.69
74181;BME280;62544;50.826;14.354;2022-09-01T05:41:06;99652.15;;;11.64;90.84
74181;BME280;62544;50.826;14.354;2022-09-01T05:45:08;99651.68;;;11.70;91.05
74181;BME280;62544;50.826;14.354;2022-09-01T05:49:10;99652.00;;;11.79;90.57
74181;BME280;62544;50.826;14.354;2022-09-01T05:53:12;99652.03;;;11.85;90.51
74181;BME280;62544;50.826;14.354;2022-09-01T05:57:13;99654.05;;;11.93;90.28
74181;BME280;62544;50.826;14.354;2022-09-01T06:01:19;99654.88;;;12.02;89.95
74181;BME280;62544;50.826;14.354;2022-09-01T06:05:17;99654.89;;;12.11;89.61
74181;BME280;62544;50.826;14.354;2022-09-01T06:09:19;99654.96;;;12.22;88.76
74181;BME280;62544;50.826;14.354;2022-09-01T06:13:21;99655.02;;;12.34;88.80
74181;BME280;62544;50.826;14.354;2022-09-01T06:17:25;99655.30;;;12.50;87.15
74181;BME280;62544;50.826;14.354;2022-09-01T06:21:26;99655.58;;;12.68;85.62
74181;BME280;62544;50.826;14.354;2022-09-01T06:25:27;99655.39;;;12.89;85.34
74181;BME280;62544;50.826;14.354;2022-09-01T06:29:29;99654.15;;;13.12;84.39
74181;BME280;62544;50.826;14.354;2022-09-01T06:33:31;99654.27;;;13.40;83.80
74181;BME280;62544;50.826;14.354;2022-09-01T06:37:33;99653.99;;;13.75;81.60
74181;BME280;62544;50.826;14.354;2022-09-01T06:41:35;99653.94;;;14.12;77.96
74181;BME280;62544;50.826;14.354;2022-09-01T06:45:39;99653.89;;;14.47;77.59
74181;BME280;62544;50.826;14.354;2022-09-01T06:49:39;99654.16;;;14.80;77.24
74181;BME280;62544;50.826;14.354;2022-09-01T06:53:42;99654.97;;;15.12;76.45
74181;BME280;62544;50.826;14.354;2022-09-01T06:57:43;99656.02;;;15.43;75.68
74181;BME280;62544;50.826;14.354;2022-09-01T07:01:45;99656.98;;;15.70;74.30
74181;BME280;62544;50.826;14.354;2022-09-01T07:05:47;99657.95;;;15.95;73.19
74181;BME280;62544;50.826;14.354;2022-09-01T07:09:49;99658.72;;;16.18;72.90
74181;BME280;62544;50.826;14.354;2022-09-01T07:13:56;99660.91;;;16.39;73.51
74181;BME280;62544;50.826;14.354;2022-09-01T07:17:54;99661.38;;;16.58;72.41
74181;BME280;62544;50.826;14.354;2022-09-01T07:21:55;99662.13;;;16.79;72.32
74181;BME280;62544;50.826;14.354;2022-09-01T07:25:57;99662.98;;;16.98;70.78
74181;BME280;62544;50.826;14.354;2022-09-01T07:29:59;99663.54;;;17.16;70.30
74181;BME280;62544;50.826;14.354;2022-09-01T07:34:02;99661.95;;;17.37;68.73
74181;BME280;62544;50.826;14.354;2022-09-01T07:38:03;99661.05;;;17.61;66.39
74181;BME280;62544;50.826;14.354;2022-09-01T07:42:06;99660.39;;;17.88;65.35
74181;BME280;62544;50.826;14.354;2022-09-01T07:46:07;99660.39;;;18.16;64.69
74181;BME280;62544;50.826;14.354;2022-09-01T07:50:10;99659.27;;;18.53;62.63
74181;BME280;62544;50.826;14.354;2022-09-01T07:54:12;99657.70;;;19.03;59.08
74181;BME280;62544;50.826;14.354;2022-09-01T07:58:14;99656.36;;;19.45;59.30
74181;BME280;62544;50.826;14.354;2022-09-01T08:02:16;99656.02;;;19.81;58.89
74181;BME280;62544;50.826;14.354;2022-09-01T08:06:18;99656.46;;;20.11;57.30
74181;BME280;62544;50.826;14.354;2022-09-01T08:10:20;99656.44;;;20.40;57.55
74181;BME280;62544;50.826;14.354;2022-09-01T08:14:22;99655.36;;;20.72;57.52
74181;BME280;62544;50.826;14.354;2022-09-01T08:18:24;99655.06;;;21.10;55.88
74181;BME280;62544;50.826;14.354;2022-09-01T08:22:25;99654.91;;;21.47;54.38
74181;BME280;62544;50.826;14.354;2022-09-01T08:26:28;99654.65;;;21.85;52.79
74181;BME280;62544;50.826;14.354;2022-09-01T08:30:30;99653.80;;;22.20;50.16
74181;BME280;62544;50.826;14.354;2022-09-01T08:34:32;99653.66;;;22.46;51.76
74181;BME280;62544;50.826;14.354;2022-09-01T08:38:34;99654.92;;;22.70;51.60
74181;BME280;62544;50.826;14.354;2022-09-01T08:46:38;99656.48;;;23.17;46.30
74181;BME280;62544;50.826;14.354;2022-09-01T08:50:40;99656.23;;;23.34;46.69
74181;BME280;62544;50.826;14.354;2022-09-01T08:58:43;99652.84;;;23.84;41.31
74181;BME280;62544;50.826;14.354;2022-09-01T09:07:01;99649.95;;;24.24;41.20
74181;BME280;62544;50.826;14.354;2022-09-01T09:11:06;99651.48;;;24.13;41.93
74181;BME280;62544;50.826;14.354;2022-09-01T09:19:02;99654.86;;;23.37;46.20
74181;BME280;62544;50.826;14.354;2022-09-01T09:22:56;99656.77;;;22.86;45.34
74181;BME280;62544;50.826;14.354;2022-09-01T09:26:57;99657.31;;;22.54;44.48
74181;BME280;62544;50.826;14.354;2022-09-01T09:35:16;99659.22;;;22.30;45.98
74181;BME280;62544;50.826;14.354;2022-09-01T09:39:14;99658.08;;;22.37;43.29
74181;BME280;62544;50.826;14.354;2022-09-01T09:43:06;99657.17;;;22.40;44.35
74181;BME280;62544;50.826;14.354;2022-09-01T09:47:08;99657.51;;;22.43;43.10
74181;BME280;62544;50.826;14.354;2022-09-01T09:51:16;99656.73;;;22.49;43.42
74181;BME280;62544;50.826;14.354;2022-09-01T09:55:25;99655.52;;;22.58;43.52
74181;BME280;62544;50.826;14.354;2022-09-01T10:03:16;99651.76;;;22.85;42.48
74181;BME280;62544;50.826;14.354;2022-09-01T10:11:39;99651.58;;;22.47;43.81
74181;BME280;62544;50.826;14.354;2022-09-01T10:15:24;99653.33;;;22.35;43.27
74181;BME280;62544;50.826;14.354;2022-09-01T10:19:23;99653.31;;;22.37;41.85
74181;BME280;62544;50.826;14.354;2022-09-01T10:23:27;99651.75;;;22.47;41.20
74181;BME280;62544;50.826;14.354;2022-09-01T10:27:29;99648.27;;;22.65;39.90
74181;BME280;62544;50.826;14.354;2022-09-01T10:31:29;99645.40;;;23.02;37.70
74181;BME280;62544;50.826;14.354;2022-09-01T10:35:33;99644.87;;;23.22;38.48
74181;BME280;62544;50.826;14.354;2022-09-01T10:39:34;99645.78;;;23.28;39.75
74181;BME280;62544;50.826;14.354;2022-09-01T10:43:37;99646.03;;;23.37;41.77
74181;BME280;62544;50.826;14.354;2022-09-01T10:47:37;99646.09;;;23.30;42.44
74181;BME280;62544;50.826;14.354;2022-09-01T10:51:40;99647.81;;;23.37;39.63
74181;BME280;62544;50.826;14.354;2022-09-01T10:55:43;99646.59;;;23.63;38.88
74181;BME280;62544;50.826;14.354;2022-09-01T10:59:44;99644.95;;;24.03;38.06
74181;BME280;62544;50.826;14.354;2022-09-01T11:03:50;99644.62;;;24.35;35.66
74181;BME280;62544;50.826;14.354;2022-09-01T11:07:48;99643.78;;;24.49;37.91
74181;BME280;62544;50.826;14.354;2022-09-01T11:15:52;99642.91;;;24.35;37.72
74181;BME280;62544;50.826;14.354;2022-09-01T11:19:55;99642.63;;;24.22;39.28
74181;BME280;62544;50.826;14.354;2022-09-01T11:28:08;99638.06;;;24.17;37.58
74181;BME280;62544;50.826;14.354;2022-09-01T11:32:00;99637.45;;;23.83;40.17
74181;BME280;62544;50.826;14.354;2022-09-01T11:36:03;99636.84;;;23.54;40.32
74181;BME280;62544;50.826;14.354;2022-09-01T11:40:04;99636.86;;;23.42;40.97
74181;BME280;62544;50.826;14.354;2022-09-01T11:44:25;99636.44;;;23.37;39.60
74181;BME280;62544;50.826;14.354;2022-09-01T11:48:08;99637.34;;;23.14;42.28
74181;BME280;62544;50.826;14.354;2022-09-01T11:52:12;99637.80;;;22.90;43.45
74181;BME280;62544;50.826;14.354;2022-09-01T11:56:14;99638.48;;;22.72;42.79
74181;BME280;62544;50.826;14.354;2022-09-01T12:00:15;99636.06;;;22.71;39.99
74181;BME280;62544;50.826;14.354;2022-09-01T12:04:16;99633.65;;;22.89;39.93
74181;BME280;62544;50.826;14.354;2022-09-01T12:08:18;99630.41;;;23.38;34.73
74181;BME280;62544;50.826;14.354;2022-09-01T12:12:33;99627.89;;;23.98;32.74
74181;BME280;62544;50.826;14.354;2022-09-01T12:16:22;99627.50;;;24.07;37.45
74181;BME280;62544;50.826;14.354;2022-09-01T12:20:28;99628.52;;;23.76;40.56
74181;BME280;62544;50.826;14.354;2022-09-01T12:24:26;99627.56;;;23.53;39.12
74181;BME280;62544;50.826;14.354;2022-09-01T12:28:29;99627.70;;;23.20;41.84
74181;BME280;62544;50.826;14.354;2022-09-01T12:32:30;99627.49;;;22.99;40.41
74181;BME280;62544;50.826;14.354;2022-09-01T12:36:33;99628.09;;;22.73;40.22
74181;BME280;62544;50.826;14.354;2022-09-01T12:40:34;99626.14;;;22.68;38.26
74181;BME280;62544;50.826;14.354;2022-09-01T12:48:39;99625.07;;;22.80;37.84
74181;BME280;62544;50.826;14.354;2022-09-01T12:52:46;99623.58;;;22.93;38.52
74181;BME280;62544;50.826;14.354;2022-09-01T12:56:45;99621.64;;;23.10;38.15
74181;BME280;62544;50.826;14.354;2022-09-01T13:00:54;99621.00;;;23.08;39.87
74181;BME280;62544;50.826;14.354;2022-09-01T13:04:46;99620.26;;;23.05;38.34
74181;BME280;62544;50.826;14.354;2022-09-01T13:08:47;99617.60;;;23.19;37.15
74181;BME280;62544;50.826;14.354;2022-09-01T13:12:50;99613.92;;;23.43;36.27
74181;BME280;62544;50.826;14.354;2022-09-01T13:16:52;99612.42;;;23.54;35.90
74181;BME280;62544;50.826;14.354;2022-09-01T13:20:54;99608.80;;;23.73;35.76
74181;BME280;62544;50.826;14.354;2022-09-01T13:24:56;99605.42;;;24.01;35.23
74181;BME280;62544;50.826;14.354;2022-09-01T13:28:58;99602.50;;;24.28;32.71
74181;BME280;62544;50.826;14.354;2022-09-01T13:33:00;99599.50;;;24.32;32.97
74181;BME280;62544;50.826;14.354;2022-09-01T13:37:02;99596.54;;;24.56;30.45
74181;BME280;62544;50.826;14.354;2022-09-01T13:41:04;99594.69;;;24.94;29.67
74181;BME280;62544;50.826;14.354;2022-09-01T13:45:06;99591.16;;;25.49;28.56
74181;BME280;62544;50.826;14.354;2022-09-01T13:49:08;99588.95;;;25.98;29.61
74181;BME280;62544;50.826;14.354;2022-09-01T13:53:10;99586.16;;;26.27;29.15
74181;BME280;62544;50.826;14.354;2022-09-01T13:57:12;99584.04;;;26.12;32.36
74181;BME280;62544;50.826;14.354;2022-09-01T14:01:14;99581.86;;;26.19;32.06
74181;BME280;62544;50.826;14.354;2022-09-01T14:05:17;99580.35;;;26.53;29.63
74181;BME280;62544;50.826;14.354;2022-09-01T14:09:18;99578.89;;;26.84;31.50
74181;BME280;62544;50.826;14.354;2022-09-01T14:13:20;99577.89;;;27.28;30.13
74181;BME280;62544;50.826;14.354;2022-09-01T14:17:22;99574.47;;;27.55;29.98
74181;BME280;62544;50.826;14.354;2022-09-01T14:21:24;99574.66;;;28.03;28.50
74181;BME280;62544;50.826;14.354;2022-09-01T14:25:26;99573.00;;;28.54;27.70
74181;BME280;62544;50.826;14.354;2022-09-01T14:29:28;99573.97;;;28.77;27.65
74181;BME280;62544;50.826;14.354;2022-09-01T14:33:30;99573.71;;;28.93;28.56
74181;BME280;62544;50.826;14.354;2022-09-01T14:37:32;99575.00;;;28.93;28.93
74181;BME280;62544;50.826;14.354;2022-09-01T14:41:34;99576.70;;;28.38;32.92
74181;BME280;62544;50.826;14.354;2022-09-01T14:45:36;99578.47;;;27.48;35.72
74181;BME280;62544;50.826;14.354;2022-09-01T14:49:38;99579.74;;;26.57;38.91
74181;BME280;62544;50.826;14.354;2022-09-01T14:53:40;99581.33;;;25.64;40.25
74181;BME280;62544;50.826;14.354;2022-09-01T14:57:42;99581.53;;;24.73;41.20
74181;BME280;62544;50.826;14.354;2022-09-01T15:01:44;99582.51;;;23.91;41.56
74181;BME280;62544;50.826;14.354;2022-09-01T15:05:46;99582.93;;;23.30;43.35
74181;BME280;62544;50.826;14.354;2022-09-01T15:09:48;99583.08;;;22.84;42.06
74181;BME280;62544;50.826;14.354;2022-09-01T15:13:50;99584.66;;;22.41;42.48
74181;BME280;62544;50.826;14.354;2022-09-01T15:17:52;99585.21;;;22.05;41.98
74181;BME280;62544;50.826;14.354;2022-09-01T15:21:54;99585.64;;;21.74;42.59
74181;BME280;62544;50.826;14.354;2022-09-01T15:25:56;99585.96;;;21.50;43.76
74181;BME280;62544;50.826;14.354;2022-09-01T15:29:58;99586.63;;;21.34;43.70
74181;BME280;62544;50.826;14.354;2022-09-01T15:34:00;99587.77;;;21.24;43.46
74181;BME280;62544;50.826;14.354;2022-09-01T15:38:02;99589.70;;;21.18;44.72
74181;BME280;62544;50.826;14.354;2022-09-01T15:42:04;99590.59;;;21.04;45.94
74181;BME280;62544;50.826;14.354;2022-09-01T15:46:06;99592.16;;;20.84;46.08
74181;BME280;62544;50.826;14.354;2022-09-01T15:50:09;99592.75;;;20.67;45.49
74181;BME280;62544;50.826;14.354;2022-09-01T15:54:11;99591.91;;;20.48;47.25
74181;BME280;62544;50.826;14.354;2022-09-01T15:58:13;99590.95;;;20.25;47.44
74181;BME280;62544;50.826;14.354;2022-09-01T16:02:14;99590.42;;;20.05;47.82
74181;BME280;62544;50.826;14.354;2022-09-01T16:06:16;99588.92;;;19.93;47.73
74181;BME280;62544;50.826;14.354;2022-09-01T16:10:18;99588.73;;;19.83;47.28
74181;BME280;62544;50.826;14.354;2022-09-01T16:14:20;99587.46;;;19.79;46.86
74181;BME280;62544;50.826;14.354;2022-09-01T16:18:31;99585.92;;;19.77;46.64
74181;BME280;62544;50.826;14.354;2022-09-01T16:26:26;99583.37;;;19.91;44.51
74181;BME280;62544;50.826;14.354;2022-09-01T16:30:28;99583.01;;;20.09;44.24
74181;BME280;62544;50.826;14.354;2022-09-01T16:34:30;99581.92;;;20.19;46.02
74181;BME280;62544;50.826;14.354;2022-09-01T16:46:39;99583.59;;;19.86;48.42
74181;BME280;62544;50.826;14.354;2022-09-01T16:50:41;99584.80;;;19.70;49.75
74181;BME280;62544;50.826;14.354;2022-09-01T16:54:50;99586.16;;;19.57;48.52
74181;BME280;62544;50.826;14.354;2022-09-01T16:58:47;99586.83;;;19.43;48.30
74181;BME280;62544;50.826;14.354;2022-09-01T17:02:49;99588.23;;;19.30;47.94
74181;BME280;62544;50.826;14.354;2022-09-01T17:06:55;99589.63;;;19.17;49.81
74181;BME280;62544;50.826;14.354;2022-09-01T17:10:53;99590.69;;;19.06;51.80
74181;BME280;62544;50.826;14.354;2022-09-01T17:15:10;99591.37;;;18.98;51.76
74181;BME280;62544;50.826;14.354;2022-09-01T17:18:53;99591.54;;;18.91;53.00
74181;BME280;62544;50.826;14.354;2022-09-01T17:22:55;99591.67;;;18.83;54.00
74181;BME280;62544;50.826;14.354;2022-09-01T17:26:57;99593.45;;;18.73;56.14
74181;BME280;62544;50.826;14.354;2022-09-01T17:39:07;99599.73;;;18.39;58.58
74181;BME280;62544;50.826;14.354;2022-09-01T17:43:15;99601.08;;;18.27;59.75
74181;BME280;62544;50.826;14.354;2022-09-01T17:47:19;99602.12;;;18.13;59.92
74181;BME280;62544;50.826;14.354;2022-09-01T17:59:24;99607.36;;;17.71;62.47
74181;BME280;62544;50.826;14.354;2022-09-01T18:03:20;99609.97;;;17.57;63.07
74181;BME280;62544;50.826;14.354;2022-09-01T18:15:20;99619.14;;;17.17;64.76
74181;BME280;62544;50.826;14.354;2022-09-01T18:19:23;99622.58;;;17.05;65.33
74181;BME280;62544;50.826;14.354;2022-09-01T18:23:24;99625.87;;;16.93;65.71
74181;BME280;62544;50.826;14.354;2022-09-01T18:27:26;99629.08;;;16.80;65.83
74181;BME280;62544;50.826;14.354;2022-09-01T18:35:35;99635.24;;;16.57;67.36
74181;BME280;62544;50.826;14.354;2022-09-01T18:43:42;99641.02;;;16.37;67.66
74181;BME280;62544;50.826;14.354;2022-09-01T18:47:46;99642.72;;;16.26;68.45
74181;BME280;62544;50.826;14.354;2022-09-01T18:51:47;99644.71;;;16.16;68.90
74181;BME280;62544;50.826;14.354;2022-09-01T18:59:46;99649.02;;;15.98;70.00
74181;BME280;62544;50.826;14.354;2022-09-01T19:03:46;99650.85;;;15.90;70.73
74181;BME280;62544;50.826;14.354;2022-09-01T19:07:56;99652.45;;;15.81;71.26
74181;BME280;62544;50.826;14.354;2022-09-01T19:15:53;99655.35;;;15.66;71.77
74181;BME280;62544;50.826;14.354;2022-09-01T19:19:59;99656.38;;;15.58;71.25
74181;BME280;62544;50.826;14.354;2022-09-01T19:28:10;99657.98;;;15.44;73.15
74181;BME280;62544;50.826;14.354;2022-09-01T19:31:59;99657.81;;;15.37;73.27
74181;BME280;62544;50.826;14.354;2022-09-01T19:36:02;99657.17;;;15.31;73.15
74181;BME280;62544;50.826;14.354;2022-09-01T19:40:02;99658.98;;;15.24;73.61
74181;BME280;62544;50.826;14.354;2022-09-01T19:44:10;99659.61;;;15.18;73.26
74181;BME280;62544;50.826;14.354;2022-09-01T19:48:12;99660.38;;;15.11;74.36
74181;BME280;62544;50.826;14.354;2022-09-01T19:52:09;99662.10;;;15.04;74.09
74181;BME280;62544;50.826;14.354;2022-09-01T19:56:19;99663.51;;;14.97;74.59
74181;BME280;62544;50.826;14.354;2022-09-01T20:00:16;99664.70;;;14.90;74.92
74181;BME280;62544;50.826;14.354;2022-09-01T20:12:22;99667.36;;;14.68;75.82
74181;BME280;62544;50.826;14.354;2022-09-01T20:20:23;99669.35;;;14.53;77.43
74181;BME280;62544;50.826;14.354;2022-09-01T20:24:33;99669.80;;;14.47;77.54
74181;BME280;62544;50.826;14.354;2022-09-01T20:36:33;99672.50;;;14.28;77.59
74181;BME280;62544;50.826;14.354;2022-09-01T20:40:36;99673.85;;;14.22;78.34
74181;BME280;62544;50.826;14.354;2022-09-01T20:44:44;99675.56;;;14.15;78.79
74181;BME280;62544;50.826;14.354;2022-09-01T20:48:39;99676.23;;;14.09;79.56
74181;BME280;62544;50.826;14.354;2022-09-01T20:52:51;99678.09;;;14.04;79.31
74181;BME280;62544;50.826;14.354;2022-09-01T21:00:49;99680.70;;;13.90;79.42
74181;BME280;62544;50.826;14.354;2022-09-01T21:04:49;99681.16;;;13.82;79.12
74181;BME280;62544;50.826;14.354;2022-09-01T21:20:56;99684.48;;;13.42;80.06
74181;BME280;62544;50.826;14.354;2022-09-01T21:24:54;99684.55;;;13.31;80.10
74181;BME280;62544;50.826;14.354;2022-09-01T21:28:56;99684.18;;;13.22;81.17
74181;BME280;62544;50.826;14.354;2022-09-01T21:32:58;99682.84;;;13.13;80.96
74181;BME280;62544;50.826;14.354;2022-09-01T21:36:59;99681.95;;;13.05;80.79
74181;BME280;62544;50.826;14.354;2022-09-01T21:41:02;99681.59;;;12.97;81.38
74181;BME280;62544;50.826;14.354;2022-09-01T21:45:04;99680.36;;;12.90;81.94
74181;BME280;62544;50.826;14.354;2022-09-01T21:49:05;99679.71;;;12.84;82.71
74181;BME280;62544;50.826;14.354;2022-09-01T21:53:08;99678.18;;;12.77;83.42
74181;BME280;62544;50.826;14.354;2022-09-01T21:57:10;99677.48;;;12.72;83.78
74181;BME280;62544;50.826;14.354;2022-09-01T22:01:12;99676.35;;;12.67;83.55
74181;BME280;62544;50.826;14.354;2022-09-01T22:05:14;99674.81;;;12.62;83.40
74181;BME280;62544;50.826;14.354;2022-09-01T22:09:16;99673.71;;;12.57;83.56
74181;BME280;62544;50.826;14.354;2022-09-01T22:13:18;99672.09;;;12.52;83.43
74181;BME280;62544;50.826;14.354;2022-09-01T22:17:20;99670.39;;;12.45;83.61
74181;BME280;62544;50.826;14.354;2022-09-01T22:21:22;99669.80;;;12.40;84.23
74181;BME280;62544;50.826;14.354;2022-09-01T22:25:24;99669.26;;;12.33;84.05
74181;BME280;62544;50.826;14.354;2022-09-01T22:29:26;99668.52;;;12.27;84.34
74181;BME280;62544;50.826;14.354;2022-09-01T22:33:28;99667.16;;;12.20;84.20
74181;BME280;62544;50.826;14.354;2022-09-01T22:37:29;99665.59;;;12.13;84.55
74181;BME280;62544;50.826;14.354;2022-09-01T22:41:32;99664.42;;;12.06;84.92
74181;BME280;62544;50.826;14.354;2022-09-01T22:45:34;99664.06;;;11.99;85.63
74181;BME280;62544;50.826;14.354;2022-09-01T22:49:35;99662.47;;;11.93;85.93
74181;BME280;62544;50.826;14.354;2022-09-01T22:53:38;99660.76;;;11.87;86.18
74181;BME280;62544;50.826;14.354;2022-09-01T22:57:39;99661.39;;;11.80;85.76
74181;BME280;62544;50.826;14.354;2022-09-01T23:01:42;99661.95;;;11.73;85.71
74181;BME280;62544;50.826;14.354;2022-09-01T23:05:44;99663.09;;;11.66;86.23
74181;BME280;62544;50.826;14.354;2022-09-01T23:09:45;99664.15;;;11.60;86.37
74181;BME280;62544;50.826;14.354;2022-09-01T23:13:47;99664.48;;;11.55;86.44
74181;BME280;62544;50.826;14.354;2022-09-01T23:17:49;99664.67;;;11.50;86.55
74181;BME280;62544;50.826;14.354;2022-09-01T23:21:52;99663.93;;;11.46;86.95
74181;BME280;62544;50.826;14.354;2022-09-01T23:25:53;99662.81;;;11.44;86.80